sensor_id;sensor_type;location;lat;lon;timestamp;pressure;altitude;pressure_sealevel;temperature;humidity
43450;BME280;29041;42.266;23.110;2022-09-02T00:01:47;95514.34;;;25.56;64.80
43450;BME280;29041;42.266;23.110;2022-09-02T00:04:34;95506.84;;;24.12;72.07
43450;BME280;29041;42.266;23.110;2022-09-02T00:07:21;95536.38;;;23.11;76.98
43450;BME280;29041;42.266;23.110;2022-09-02T00:10:08;95552.19;;;23.61;76.57
43450;BME280;29041;42.266;23.110;2022-09-02T00:12:57;95540.81;;;23.90;79.65
43450;BME280;29041;42.266;23.110;2022-09-02T00:15:45;95535.88;;;24.09;78.53
43450;BME280;29041;42.266;23.110;2022-09-02T00:18:33;95523.97;;;23.92;80.01
43450;BME280;29041;42.266;23.110;2022-09-02T00:21:21;95515.47;;;23.83;79.76
43450;BME280;29041;42.266;23.110;2022-09-02T00:24:40;95520.19;;;24.10;77.44
43450;BME280;29041;42.266;23.110;2022-09-02T00:27:27;95520.91;;;23.59;80.33
43450;BME280;29041;42.266;23.110;2022-09-02T00:30:16;95525.38;;;23.76;78.67
43450;BME280;29041;42.266;23.110;2022-09-02T00:33:04;95510.66;;;23.90;77.79
43450;BME280;29041;42.266;23.110;2022-09-02T00:35:51;95510.75;;;23.59;79.63
43450;BME280;29041;42.266;23.110;2022-09-02T00:38:40;95508.25;;;23.69;79.12
43450;BME280;29041;42.266;23.110;2022-09-02T00:41:28;95508.44;;;24.09;77.30
43450;BME280;29041;42.266;23.110;2022-09-02T00:44:18;95497.59;;;24.02;76.37
43450;BME280;29041;42.266;23.110;2022-09-02T00:47:08;95492.94;;;24.46;75.93
43450;BME280;29041;42.266;23.110;2022-09-02T00:49:56;95505.84;;;24.69;72.37
43450;BME280;29041;42.266;23.110;2022-09-02T00:52:46;95494.63;;;23.89;77.16
43450;BME280;29041;42.266;23.110;2022-09-02T00:55:38;95501.47;;;24.04;76.41
43450;BME280;29041;42.266;23.110;2022-09-02T00:58:29;95500.53;;;24.59;72.67
43450;BME280;29041;42.266;23.110;2022-09-02T01:01:18;95494.66;;;24.80;69.77
43450;BME280;29041;42.266;23.110;2022-09-02T01:04:08;95510.59;;;25.09;68.69
43450;BME280;29041;42.266;23.110;2022-09-02T01:06:55;95509.38;;;25.30;68.94
43450;BME280;29041;42.266;23.110;2022-09-02T01:09:42;95492.56;;;24.68;70.48
43450;BME280;29041;42.266;23.110;2022-09-02T01:12:30;95503.13;;;24.46;71.81
43450;BME280;29041;42.266;23.110;2022-09-02T01:15:18;95499.50;;;24.05;74.57
43450;BME280;29041;42.266;23.110;2022-09-02T01:18:06;95497.34;;;24.40;73.49
43450;BME280;29041;42.266;23.110;2022-09-02T01:20:56;95498.09;;;23.97;74.81
43450;BME280;29041;42.266;23.110;2022-09-02T01:23:46;95499.97;;;24.00;75.33
43450;BME280;29041;42.266;23.110;2022-09-02T01:26:33;95486.50;;;24.09;73.65
43450;BME280;29041;42.266;23.110;2022-09-02T01:29:21;95490.63;;;24.21;73.24
43450;BME280;29041;42.266;23.110;2022-09-02T01:32:08;95492.19;;;24.22;72.98
43450;BME280;29041;42.266;23.110;2022-09-02T01:34:55;95490.56;;;24.01;74.56
43450;BME280;29041;42.266;23.110;2022-09-02T01:37:44;95475.53;;;24.33;73.11
43450;BME280;29041;42.266;23.110;2022-09-02T01:40:34;95487.28;;;24.10;74.03
43450;BME280;29041;42.266;23.110;2022-09-02T01:43:24;95477.97;;;23.52;74.71
43450;BME280;29041;42.266;23.110;2022-09-02T01:46:12;95456.94;;;23.45;74.18
43450;BME280;29041;42.266;23.110;2022-09-02T01:48:59;95459.38;;;23.05;76.02
43450;BME280;29041;42.266;23.110;2022-09-02T01:51:47;95459.09;;;23.00;79.15
43450;BME280;29041;42.266;23.110;2022-09-02T01:54:35;95465.25;;;23.66;74.85
43450;BME280;29041;42.266;23.110;2022-09-02T01:57:24;95459.91;;;24.06;72.24
43450;BME280;29041;42.266;23.110;2022-09-02T02:00:12;95458.44;;;24.01;73.14
43450;BME280;29041;42.266;23.110;2022-09-02T02:03:04;95460.94;;;24.16;71.80
43450;BME280;29041;42.266;23.110;2022-09-02T02:05:52;95465.28;;;23.35;74.16
43450;BME280;29041;42.266;23.110;2022-09-02T02:08:40;95465.03;;;24.28;71.41
43450;BME280;29041;42.266;23.110;2022-09-02T02:11:27;95460.00;;;24.46;70.32
43450;BME280;29041;42.266;23.110;2022-09-02T02:14:16;95462.03;;;24.62;70.00
43450;BME280;29041;42.266;23.110;2022-09-02T02:17:05;95462.91;;;24.15;71.10
43450;BME280;29041;42.266;23.110;2022-09-02T02:19:52;95460.81;;;24.23;70.94
43450;BME280;29041;42.266;23.110;2022-09-02T02:22:40;95455.28;;;24.03;71.87
43450;BME280;29041;42.266;23.110;2022-09-02T02:25:27;95455.81;;;23.94;72.48
43450;BME280;29041;42.266;23.110;2022-09-02T02:28:14;95461.25;;;23.70;73.54
43450;BME280;29041;42.266;23.110;2022-09-02T02:31:04;95449.97;;;24.16;73.04
43450;BME280;29041;42.266;23.110;2022-09-02T02:33:51;95456.97;;;24.40;71.58
43450;BME280;29041;42.266;23.110;2022-09-02T02:36:39;95450.00;;;24.56;72.05
43450;BME280;29041;42.266;23.110;2022-09-02T02:39:26;95450.16;;;24.05;73.48
43450;BME280;29041;42.266;23.110;2022-09-02T02:42:13;95454.44;;;24.06;74.56
43450;BME280;29041;42.266;23.110;2022-09-02T02:45:02;95446.59;;;24.52;71.52
43450;BME280;29041;42.266;23.110;2022-09-02T02:47:55;95445.69;;;24.99;69.36
43450;BME280;29041;42.266;23.110;2022-09-02T02:50:43;95428.63;;;24.47;69.76
43450;BME280;29041;42.266;23.110;2022-09-02T02:53:30;95434.88;;;23.80;73.39
43450;BME280;29041;42.266;23.110;2022-09-02T02:56:19;95424.06;;;23.97;71.81
43450;BME280;29041;42.266;23.110;2022-09-02T02:59:07;95425.03;;;23.59;73.62
43450;BME280;29041;42.266;23.110;2022-09-02T03:01:54;95421.28;;;23.73;73.27
43450;BME280;29041;42.266;23.110;2022-09-02T03:04:43;95415.72;;;23.53;74.33
43450;BME280;29041;42.266;23.110;2022-09-02T03:07:30;95394.66;;;23.73;72.97
43450;BME280;29041;42.266;23.110;2022-09-02T03:10:18;95412.28;;;23.72;73.29
43450;BME280;29041;42.266;23.110;2022-09-02T03:13:07;95402.72;;;24.28;70.60
43450;BME280;29041;42.266;23.110;2022-09-02T03:15:54;95410.09;;;23.87;71.81
43450;BME280;29041;42.266;23.110;2022-09-02T03:18:41;95418.50;;;23.76;71.29
43450;BME280;29041;42.266;23.110;2022-09-02T03:21:30;95418.06;;;23.78;71.89
43450;BME280;29041;42.266;23.110;2022-09-02T03:24:17;95426.38;;;23.47;73.01
43450;BME280;29041;42.266;23.110;2022-09-02T03:27:05;95416.50;;;23.77;72.01
43450;BME280;29041;42.266;23.110;2022-09-02T03:29:53;95419.84;;;23.88;72.47
43450;BME280;29041;42.266;23.110;2022-09-02T03:32:40;95417.75;;;23.72;74.49
43450;BME280;29041;42.266;23.110;2022-09-02T03:35:28;95428.09;;;23.88;74.76
43450;BME280;29041;42.266;23.110;2022-09-02T03:38:17;95422.94;;;23.12;78.00
43450;BME280;29041;42.266;23.110;2022-09-02T03:41:04;95428.09;;;23.88;75.41
43450;BME280;29041;42.266;23.110;2022-09-02T03:43:51;95435.81;;;22.84;79.13
43450;BME280;29041;42.266;23.110;2022-09-02T03:46:39;95419.63;;;22.28;80.52
43450;BME280;29041;42.266;23.110;2022-09-02T03:49:26;95426.38;;;22.58;79.46
43450;BME280;29041;42.266;23.110;2022-09-02T03:52:13;95439.66;;;23.21;77.41
43450;BME280;29041;42.266;23.110;2022-09-02T03:55:03;95442.31;;;23.56;75.85
43450;BME280;29041;42.266;23.110;2022-09-02T03:57:50;95449.13;;;23.44;75.91
43450;BME280;29041;42.266;23.110;2022-09-02T04:00:37;95455.59;;;24.08;74.15
43450;BME280;29041;42.266;23.110;2022-09-02T04:03:24;95463.22;;;23.70;75.08
43450;BME280;29041;42.266;23.110;2022-09-02T04:06:14;95459.28;;;23.98;75.12
43450;BME280;29041;42.266;23.110;2022-09-02T04:09:01;95456.53;;;24.22;73.01
43450;BME280;29041;42.266;23.110;2022-09-02T04:11:50;95464.97;;;24.31;72.74
43450;BME280;29041;42.266;23.110;2022-09-02T04:14:37;95461.22;;;23.74;75.36
43450;BME280;29041;42.266;23.110;2022-09-02T04:17:24;95471.75;;;23.48;76.24
43450;BME280;29041;42.266;23.110;2022-09-02T04:20:12;95480.78;;;24.00;73.86
43450;BME280;29041;42.266;23.110;2022-09-02T04:22:59;95473.09;;;23.64;75.25
43450;BME280;29041;42.266;23.110;2022-09-02T04:25:47;95489.16;;;23.61;75.97
43450;BME280;29041;42.266;23.110;2022-09-02T04:28:36;95478.06;;;23.45;76.17
43450;BME280;29041;42.266;23.110;2022-09-02T04:31:24;95488.56;;;23.50;77.00
43450;BME280;29041;42.266;23.110;2022-09-02T04:34:14;95497.25;;;24.23;74.14
43450;BME280;29041;42.266;23.110;2022-09-02T04:37:01;95492.47;;;23.49;76.50
43450;BME280;29041;42.266;23.110;2022-09-02T04:39:49;95491.28;;;24.05;74.10
43450;BME280;29041;42.266;23.110;2022-09-02T04:42:37;95496.59;;;23.88;74.56
43450;BME280;29041;42.266;23.110;2022-09-02T04:45:25;95492.59;;;23.69;75.43
43450;BME280;29041;42.266;23.110;2022-09-02T04:48:13;95493.00;;;24.43;72.46
43450;BME280;29041;42.266;23.110;2022-09-02T04:51:03;95498.91;;;23.94;73.34
43450;BME280;29041;42.266;23.110;2022-09-02T04:53:52;95495.75;;;23.68;73.35
43450;BME280;29041;42.266;23.110;2022-09-02T04:56:39;95490.41;;;23.57;74.45
43450;BME280;29041;42.266;23.110;2022-09-02T04:59:27;95494.97;;;23.67;73.24
43450;BME280;29041;42.266;23.110;2022-09-02T05:02:15;95497.31;;;23.92;72.95
43450;BME280;29041;42.266;23.110;2022-09-02T05:05:05;95497.13;;;23.80;73.47
43450;BME280;29041;42.266;23.110;2022-09-02T05:07:52;95511.00;;;23.96;72.81
43450;BME280;29041;42.266;23.110;2022-09-02T05:10:41;95517.97;;;24.01;73.22
43450;BME280;29041;42.266;23.110;2022-09-02T05:13:28;95520.91;;;24.14;72.21
43450;BME280;29041;42.266;23.110;2022-09-02T05:16:16;95515.50;;;24.10;72.69
43450;BME280;29041;42.266;23.110;2022-09-02T05:19:07;95501.16;;;23.99;72.37
43450;BME280;29041;42.266;23.110;2022-09-02T05:21:56;95519.16;;;24.00;72.67
43450;BME280;29041;42.266;23.110;2022-09-02T05:24:44;95514.69;;;24.57;71.24
43450;BME280;29041;42.266;23.110;2022-09-02T05:27:31;95517.28;;;23.97;73.03
43450;BME280;29041;42.266;23.110;2022-09-02T05:30:19;95511.44;;;24.42;72.24
43450;BME280;29041;42.266;23.110;2022-09-02T05:33:07;95511.19;;;24.33;72.54
43450;BME280;29041;42.266;23.110;2022-09-02T05:35:56;95514.63;;;24.13;73.01
43450;BME280;29041;42.266;23.110;2022-09-02T05:38:44;95523.22;;;24.15;72.58
43450;BME280;29041;42.266;23.110;2022-09-02T05:41:31;95514.88;;;23.71;73.94
43450;BME280;29041;42.266;23.110;2022-09-02T05:44:18;95519.09;;;23.76;74.19
43450;BME280;29041;42.266;23.110;2022-09-02T05:47:05;95514.56;;;23.66;73.86
43450;BME280;29041;42.266;23.110;2022-09-02T05:49:53;95511.34;;;23.71;74.63
43450;BME280;29041;42.266;23.110;2022-09-02T05:52:42;95511.84;;;24.40;71.35
43450;BME280;29041;42.266;23.110;2022-09-02T05:55:30;95510.88;;;24.03;73.03
43450;BME280;29041;42.266;23.110;2022-09-02T05:58:17;95497.25;;;24.23;72.47
43450;BME280;29041;42.266;23.110;2022-09-02T06:01:07;95508.31;;;24.16;73.00
43450;BME280;29041;42.266;23.110;2022-09-02T06:03:54;95510.31;;;23.88;73.28
43450;BME280;29041;42.266;23.110;2022-09-02T06:06:42;95516.13;;;24.18;72.62
43450;BME280;29041;42.266;23.110;2022-09-02T06:09:31;95503.72;;;24.33;71.46
43450;BME280;29041;42.266;23.110;2022-09-02T06:12:23;95513.44;;;24.38;71.73
43450;BME280;29041;42.266;23.110;2022-09-02T06:15:12;95514.94;;;24.19;72.67
43450;BME280;29041;42.266;23.110;2022-09-02T06:17:59;95514.63;;;24.13;71.98
43450;BME280;29041;42.266;23.110;2022-09-02T06:20:47;95505.47;;;24.00;72.72
43450;BME280;29041;42.266;23.110;2022-09-02T06:23:35;95502.09;;;24.16;71.98
43450;BME280;29041;42.266;23.110;2022-09-02T06:26:25;95519.13;;;24.27;72.06
43450;BME280;29041;42.266;23.110;2022-09-02T06:29:13;95522.16;;;24.09;72.75
43450;BME280;29041;42.266;23.110;2022-09-02T06:32:00;95522.41;;;24.18;71.94
43450;BME280;29041;42.266;23.110;2022-09-02T06:34:47;95525.22;;;24.15;71.78
43450;BME280;29041;42.266;23.110;2022-09-02T06:37:34;95515.94;;;24.29;71.25
43450;BME280;29041;42.266;23.110;2022-09-02T06:40:21;95510.22;;;24.67;70.73
43450;BME280;29041;42.266;23.110;2022-09-02T06:43:10;95524.72;;;24.67;69.82
43450;BME280;29041;42.266;23.110;2022-09-02T06:45:57;95518.09;;;24.41;71.34
43450;BME280;29041;42.266;23.110;2022-09-02T06:48:44;95528.75;;;25.03;68.52
43450;BME280;29041;42.266;23.110;2022-09-02T06:51:37;95526.22;;;24.48;70.54
43450;BME280;29041;42.266;23.110;2022-09-02T06:54:24;95533.94;;;24.06;72.68
43450;BME280;29041;42.266;23.110;2022-09-02T06:57:11;95531.59;;;24.32;71.53
43450;BME280;29041;42.266;23.110;2022-09-02T07:00:00;95533.28;;;24.69;69.48
43450;BME280;29041;42.266;23.110;2022-09-02T07:02:48;95533.13;;;24.33;70.23
43450;BME280;29041;42.266;23.110;2022-09-02T07:06:03;95535.38;;;24.14;71.92
43450;BME280;29041;42.266;23.110;2022-09-02T07:08:51;95542.06;;;24.13;72.18
43450;BME280;29041;42.266;23.110;2022-09-02T07:11:38;95543.34;;;24.08;71.00
43450;BME280;29041;42.266;23.110;2022-09-02T07:14:26;95544.47;;;24.35;70.49
43450;BME280;29041;42.266;23.110;2022-09-02T07:17:15;95537.66;;;24.67;71.22
43450;BME280;29041;42.266;23.110;2022-09-02T07:20:04;95533.59;;;24.51;71.15
43450;BME280;29041;42.266;23.110;2022-09-02T07:22:51;95542.78;;;25.65;66.61
43450;BME280;29041;42.266;23.110;2022-09-02T07:25:41;95544.22;;;24.93;68.97
43450;BME280;29041;42.266;23.110;2022-09-02T07:28:28;95535.25;;;25.70;67.01
43450;BME280;29041;42.266;23.110;2022-09-02T07:31:16;95533.16;;;26.27;64.66
43450;BME280;29041;42.266;23.110;2022-09-02T07:34:05;95523.59;;;25.05;67.14
43450;BME280;29041;42.266;23.110;2022-09-02T07:36:53;95530.25;;;25.64;65.19
43450;BME280;29041;42.266;23.110;2022-09-02T07:39:40;95539.81;;;25.76;63.93
43450;BME280;29041;42.266;23.110;2022-09-02T07:42:28;95538.47;;;25.08;66.50
43450;BME280;29041;42.266;23.110;2022-09-02T07:45:15;95531.16;;;24.57;67.63
43450;BME280;29041;42.266;23.110;2022-09-02T07:48:03;95537.13;;;25.16;66.46
43450;BME280;29041;42.266;23.110;2022-09-02T07:50:53;95548.41;;;25.42;66.01
43450;BME280;29041;42.266;23.110;2022-09-02T07:53:41;95553.25;;;25.14;65.75
43450;BME280;29041;42.266;23.110;2022-09-02T07:56:28;95552.28;;;25.44;63.97
43450;BME280;29041;42.266;23.110;2022-09-02T07:59:15;95557.75;;;25.64;63.94
43450;BME280;29041;42.266;23.110;2022-09-02T08:02:03;95550.25;;;26.97;60.54
43450;BME280;29041;42.266;23.110;2022-09-02T08:04:50;95562.38;;;26.04;63.11
43450;BME280;29041;42.266;23.110;2022-09-02T08:07:38;95563.81;;;25.56;67.23
43450;BME280;29041;42.266;23.110;2022-09-02T08:10:26;95549.22;;;26.45;63.26
43450;BME280;29041;42.266;23.110;2022-09-02T08:13:14;95553.72;;;26.22;64.35
43450;BME280;29041;42.266;23.110;2022-09-02T08:16:02;95560.25;;;26.74;63.69
43450;BME280;29041;42.266;23.110;2022-09-02T08:18:49;95555.13;;;25.94;64.91
43450;BME280;29041;42.266;23.110;2022-09-02T08:21:36;95550.34;;;26.31;64.56
43450;BME280;29041;42.266;23.110;2022-09-02T08:24:29;95543.63;;;26.49;62.78
43450;BME280;29041;42.266;23.110;2022-09-02T08:27:16;95543.75;;;26.91;59.83
43450;BME280;29041;42.266;23.110;2022-09-02T08:30:05;95545.91;;;27.68;58.32
43450;BME280;29041;42.266;23.110;2022-09-02T08:32:55;95543.81;;;26.25;62.21
43450;BME280;29041;42.266;23.110;2022-09-02T08:35:42;95539.16;;;26.05;63.02
43450;BME280;29041;42.266;23.110;2022-09-02T08:38:29;95541.22;;;26.51;62.41
43450;BME280;29041;42.266;23.110;2022-09-02T08:41:21;95543.34;;;28.51;56.60
43450;BME280;29041;42.266;23.110;2022-09-02T08:44:09;95542.97;;;28.14;57.01
43450;BME280;29041;42.266;23.110;2022-09-02T08:47:01;95547.47;;;27.82;54.63
43450;BME280;29041;42.266;23.110;2022-09-02T08:49:53;95547.56;;;27.65;55.83
43450;BME280;29041;42.266;23.110;2022-09-02T08:52:54;95544.94;;;28.13;56.69
43450;BME280;29041;42.266;23.110;2022-09-02T08:55:47;95540.47;;;29.12;54.16
43450;BME280;29041;42.266;23.110;2022-09-02T08:58:43;95541.25;;;30.38;48.51
43450;BME280;29041;42.266;23.110;2022-09-02T09:01:40;95535.72;;;28.42;52.58
43450;BME280;29041;42.266;23.110;2022-09-02T09:04:56;95536.84;;;30.50;49.26
43450;BME280;29041;42.266;23.110;2022-09-02T09:08:00;95533.81;;;29.44;51.48
43450;BME280;29041;42.266;23.110;2022-09-02T09:10:54;95530.59;;;28.67;54.01
43450;BME280;29041;42.266;23.110;2022-09-02T09:14:09;95531.13;;;29.32;52.30
43450;BME280;29041;42.266;23.110;2022-09-02T09:17:00;95523.91;;;29.34;50.83
43450;BME280;29041;42.266;23.110;2022-09-02T09:19:53;95518.69;;;29.14;53.57
43450;BME280;29041;42.266;23.110;2022-09-02T09:22:41;95520.94;;;29.28;53.78
43450;BME280;29041;42.266;23.110;2022-09-02T09:25:29;95512.19;;;29.30;51.40
43450;BME280;29041;42.266;23.110;2022-09-02T09:28:16;95515.84;;;29.81;52.96
43450;BME280;29041;42.266;23.110;2022-09-02T09:31:11;95512.97;;;29.94;50.22
43450;BME280;29041;42.266;23.110;2022-09-02T09:34:01;95513.44;;;30.51;49.77
43450;BME280;29041;42.266;23.110;2022-09-02T09:36:51;95498.34;;;30.62;49.42
43450;BME280;29041;42.266;23.110;2022-09-02T09:39:40;95502.69;;;30.81;48.66
43450;BME280;29041;42.266;23.110;2022-09-02T09:42:33;95505.78;;;28.54;55.45
43450;BME280;29041;42.266;23.110;2022-09-02T09:45:26;95502.56;;;29.66;52.45
43450;BME280;29041;42.266;23.110;2022-09-02T09:48:21;95487.41;;;29.17;51.44
43450;BME280;29041;42.266;23.110;2022-09-02T09:51:12;95495.69;;;28.73;51.97
43450;BME280;29041;42.266;23.110;2022-09-02T09:54:16;95496.00;;;28.75;50.43
43450;BME280;29041;42.266;23.110;2022-09-02T09:57:16;95493.81;;;29.36;51.23
43450;BME280;29041;42.266;23.110;2022-09-02T10:00:24;95492.16;;;29.80;49.72
43450;BME280;29041;42.266;23.110;2022-09-02T10:03:21;95485.56;;;30.46;45.60
43450;BME280;29041;42.266;23.110;2022-09-02T10:06:20;95484.31;;;30.19;45.79
43450;BME280;29041;42.266;23.110;2022-09-02T10:09:28;95478.94;;;29.84;47.44
43450;BME280;29041;42.266;23.110;2022-09-02T10:12:30;95483.41;;;30.31;45.91
43450;BME280;29041;42.266;23.110;2022-09-02T10:15:34;95477.31;;;29.96;48.11
43450;BME280;29041;42.266;23.110;2022-09-02T10:18:30;95484.38;;;30.56;43.79
43450;BME280;29041;42.266;23.110;2022-09-02T10:21:30;95484.41;;;29.97;46.98
43450;BME280;29041;42.266;23.110;2022-09-02T10:24:35;95482.28;;;30.10;46.81
43450;BME280;29041;42.266;23.110;2022-09-02T10:27:32;95471.69;;;31.20;44.30
43450;BME280;29041;42.266;23.110;2022-09-02T10:30:22;95464.69;;;30.63;45.65
43450;BME280;29041;42.266;23.110;2022-09-02T10:33:20;95462.03;;;31.68;43.79
43450;BME280;29041;42.266;23.110;2022-09-02T10:36:14;95470.59;;;32.03;42.25
43450;BME280;29041;42.266;23.110;2022-09-02T10:39:24;95466.03;;;30.96;46.35
43450;BME280;29041;42.266;23.110;2022-09-02T10:42:22;95462.34;;;30.71;44.83
43450;BME280;29041;42.266;23.110;2022-09-02T10:45:15;95459.97;;;31.77;44.44
43450;BME280;29041;42.266;23.110;2022-09-02T10:48:24;95454.41;;;31.77;45.48
43450;BME280;29041;42.266;23.110;2022-09-02T10:51:21;95451.03;;;31.30;44.90
43450;BME280;29041;42.266;23.110;2022-09-02T10:54:25;95454.63;;;30.29;46.08
43450;BME280;29041;42.266;23.110;2022-09-02T10:57:21;95451.16;;;31.79;45.40
43450;BME280;29041;42.266;23.110;2022-09-02T11:00:13;95454.66;;;30.57;46.89
43450;BME280;29041;42.266;23.110;2022-09-02T11:03:10;95445.16;;;31.38;45.43
43450;BME280;29041;42.266;23.110;2022-09-02T11:06:03;95450.03;;;30.35;46.83
43450;BME280;29041;42.266;23.110;2022-09-02T11:08:55;95449.34;;;30.03;46.17
43450;BME280;29041;42.266;23.110;2022-09-02T11:11:48;95443.25;;;30.45;45.86
43450;BME280;29041;42.266;23.110;2022-09-02T11:14:47;95444.59;;;31.15;42.78
43450;BME280;29041;42.266;23.110;2022-09-02T11:17:43;95444.19;;;30.79;44.14
43450;BME280;29041;42.266;23.110;2022-09-02T11:20:33;95447.84;;;31.04;43.64
43450;BME280;29041;42.266;23.110;2022-09-02T11:23:29;95439.06;;;31.06;44.24
43450;BME280;29041;42.266;23.110;2022-09-02T11:26:24;95441.41;;;30.42;45.33
43450;BME280;29041;42.266;23.110;2022-09-02T11:29:17;95441.06;;;31.05;44.29
43450;BME280;29041;42.266;23.110;2022-09-02T11:32:16;95443.13;;;30.58;46.61
43450;BME280;29041;42.266;23.110;2022-09-02T11:35:09;95445.75;;;30.52;45.96
43450;BME280;29041;42.266;23.110;2022-09-02T11:38:02;95445.41;;;30.22;47.28
43450;BME280;29041;42.266;23.110;2022-09-02T11:41:20;95439.28;;;30.74;44.87
43450;BME280;29041;42.266;23.110;2022-09-02T11:44:28;95449.56;;;30.92;43.66
43450;BME280;29041;42.266;23.110;2022-09-02T11:47:37;95452.06;;;30.62;44.77
43450;BME280;29041;42.266;23.110;2022-09-02T11:50:42;95453.50;;;29.57;49.05
43450;BME280;29041;42.266;23.110;2022-09-02T11:53:35;95442.06;;;29.78;50.23
43450;BME280;29041;42.266;23.110;2022-09-02T11:56:26;95442.75;;;30.10;48.98
43450;BME280;29041;42.266;23.110;2022-09-02T11:59:21;95444.28;;;30.01;49.50
43450;BME280;29041;42.266;23.110;2022-09-02T12:02:09;95438.06;;;29.79;50.81
43450;BME280;29041;42.266;23.110;2022-09-02T12:05:44;95450.94;;;29.09;53.67
43450;BME280;29041;42.266;23.110;2022-09-02T12:08:57;95448.69;;;28.28;56.99
43450;BME280;29041;42.266;23.110;2022-09-02T12:11:47;95441.13;;;28.64;55.71
43450;BME280;29041;42.266;23.110;2022-09-02T12:15:08;95444.63;;;27.94;58.57
43450;BME280;29041;42.266;23.110;2022-09-02T12:18:25;95446.47;;;28.23;57.51
43450;BME280;29041;42.266;23.110;2022-09-02T12:21:16;95444.50;;;28.24;58.36
43450;BME280;29041;42.266;23.110;2022-09-02T12:24:19;95439.94;;;28.30;57.82
43450;BME280;29041;42.266;23.110;2022-09-02T12:27:24;95422.53;;;28.77;56.03
43450;BME280;29041;42.266;23.110;2022-09-02T12:30:13;95436.03;;;29.29;54.92
43450;BME280;29041;42.266;23.110;2022-09-02T12:33:02;95436.06;;;28.62;55.67
43450;BME280;29041;42.266;23.110;2022-09-02T12:35:52;95438.59;;;28.34;56.95
43450;BME280;29041;42.266;23.110;2022-09-02T12:38:40;95451.28;;;27.58;58.66
43450;BME280;29041;42.266;23.110;2022-09-02T12:41:28;95439.56;;;27.93;57.63
43450;BME280;29041;42.266;23.110;2022-09-02T12:44:25;95440.34;;;28.06;57.01
43450;BME280;29041;42.266;23.110;2022-09-02T12:47:25;95435.16;;;28.08;57.18
43450;BME280;29041;42.266;23.110;2022-09-02T12:50:21;95435.25;;;27.92;57.77
43450;BME280;29041;42.266;23.110;2022-09-02T12:53:34;95426.88;;;28.08;57.82
43450;BME280;29041;42.266;23.110;2022-09-02T12:56:22;95423.84;;;28.50;56.76
43450;BME280;29041;42.266;23.110;2022-09-02T12:59:10;95423.94;;;27.64;60.17
43450;BME280;29041;42.266;23.110;2022-09-02T13:02:05;95425.91;;;27.76;61.46
43450;BME280;29041;42.266;23.110;2022-09-02T13:05:06;95419.69;;;28.68;58.67
43450;BME280;29041;42.266;23.110;2022-09-02T13:08:31;95423.50;;;28.26;60.40
43450;BME280;29041;42.266;23.110;2022-09-02T13:14:53;95413.22;;;27.01;63.65
43450;BME280;29041;42.266;23.110;2022-09-02T13:17:46;95424.66;;;28.03;61.07
43450;BME280;29041;42.266;23.110;2022-09-02T13:20:49;95421.94;;;27.77;62.15
43450;BME280;29041;42.266;23.110;2022-09-02T13:27:31;95412.59;;;28.45;56.84
43450;BME280;29041;42.266;23.110;2022-09-02T13:30:23;95410.91;;;28.25;58.09
43450;BME280;29041;42.266;23.110;2022-09-02T13:33:14;95423.50;;;28.48;57.68
43450;BME280;29041;42.266;23.110;2022-09-02T13:36:09;95425.78;;;27.80;59.32
43450;BME280;29041;42.266;23.110;2022-09-02T13:39:08;95422.28;;;27.66;60.71
43450;BME280;29041;42.266;23.110;2022-09-02T13:41:56;95424.13;;;28.30;57.88
43450;BME280;29041;42.266;23.110;2022-09-02T13:44:43;95410.09;;;29.04;56.61
43450;BME280;29041;42.266;23.110;2022-09-02T13:47:30;95416.66;;;29.29;55.99
43450;BME280;29041;42.266;23.110;2022-09-02T13:50:20;95422.00;;;28.12;59.44
43450;BME280;29041;42.266;23.110;2022-09-02T13:53:20;95418.94;;;27.97;60.03
43450;BME280;29041;42.266;23.110;2022-09-02T13:56:12;95422.06;;;28.79;57.81
43450;BME280;29041;42.266;23.110;2022-09-02T13:59:00;95430.72;;;28.90;56.99
43450;BME280;29041;42.266;23.110;2022-09-02T14:01:47;95415.91;;;27.57;60.29
43450;BME280;29041;42.266;23.110;2022-09-02T14:04:34;95416.66;;;27.70;58.67
43450;BME280;29041;42.266;23.110;2022-09-02T14:07:26;95428.81;;;26.79;62.62
43450;BME280;29041;42.266;23.110;2022-09-02T14:10:18;95417.41;;;26.93;62.73
43450;BME280;29041;42.266;23.110;2022-09-02T14:13:08;95417.06;;;26.91;63.19
43450;BME280;29041;42.266;23.110;2022-09-02T14:16:23;95422.16;;;27.18;63.04
43450;BME280;29041;42.266;23.110;2022-09-02T14:19:21;95419.63;;;27.11;61.10
43450;BME280;29041;42.266;23.110;2022-09-02T14:22:20;95434.28;;;27.34;61.52
43450;BME280;29041;42.266;23.110;2022-09-02T14:25:11;95432.38;;;26.63;63.80
43450;BME280;29041;42.266;23.110;2022-09-02T14:28:06;95424.81;;;27.61;61.85
43450;BME280;29041;42.266;23.110;2022-09-02T14:31:00;95412.91;;;27.77;61.08
43450;BME280;29041;42.266;23.110;2022-09-02T14:33:48;95427.31;;;26.32;65.47
43450;BME280;29041;42.266;23.110;2022-09-02T14:36:37;95428.44;;;27.19;63.34
43450;BME280;29041;42.266;23.110;2022-09-02T14:39:25;95422.06;;;27.61;61.40
43450;BME280;29041;42.266;23.110;2022-09-02T14:42:12;95431.63;;;27.17;63.27
43450;BME280;29041;42.266;23.110;2022-09-02T14:45:01;95425.47;;;27.13;63.18
43450;BME280;29041;42.266;23.110;2022-09-02T14:47:50;95442.06;;;26.67;63.74
43450;BME280;29041;42.266;23.110;2022-09-02T14:50:38;95436.75;;;26.76;64.34
43450;BME280;29041;42.266;23.110;2022-09-02T14:53:26;95443.81;;;27.59;61.11
43450;BME280;29041;42.266;23.110;2022-09-02T14:56:13;95445.88;;;27.42;61.83
43450;BME280;29041;42.266;23.110;2022-09-02T14:59:00;95448.31;;;28.61;57.59
43450;BME280;29041;42.266;23.110;2022-09-02T15:01:50;95447.72;;;27.06;62.76
43450;BME280;29041;42.266;23.110;2022-09-02T15:04:37;95459.38;;;26.97;62.91